sensor_id;sensor_type;location;lat;lon;timestamp;P1;durP1;ratioP1;P2;durP2;ratioP2
42098;SDS011;27758;55.900;8.516;2023-01-24T00:00:26;11.05;;;6.35;;
42098;SDS011;27758;55.900;8.516;2023-01-24T00:02:51;11.77;;;7.32;;
42098;SDS011;27758;55.900;8.516;2023-01-24T00:05:18;12.45;;;7.32;;
42098;SDS011;27758;55.900;8.516;2023-01-24T00:07:44;12.32;;;7.68;;
42098;SDS011;27758;55.900;8.516;2023-01-24T00:10:10;12.13;;;7.43;;
42098;SDS011;27758;55.900;8.516;2023-01-24T00:12:39;10.80;;;6.75;;
42098;SDS011;27758;55.900;8.516;2023-01-24T00:15:05;12.00;;;7.13;;
42098;SDS011;27758;55.900;8.516;2023-01-24T00:17:31;15.95;;;7.15;;
42098;SDS011;27758;55.900;8.516;2023-01-24T00:19:57;11.70;;;7.15;;
42098;SDS011;27758;55.900;8.516;2023-01-24T00:22:22;11.07;;;7.22;;
42098;SDS011;27758;55.900;8.516;2023-01-24T00:24:48;10.43;;;6.35;;
42098;SDS011;27758;55.900;8.516;2023-01-24T00:27:14;15.63;;;7.60;;
42098;SDS011;27758;55.900;8.516;2023-01-24T00:29:41;10.82;;;7.05;;
42098;SDS011;27758;55.900;8.516;2023-01-24T00:32:07;11.73;;;7.03;;
42098;SDS011;27758;55.900;8.516;2023-01-24T00:34:32;15.32;;;8.18;;
42098;SDS011;27758;55.900;8.516;2023-01-24T00:36:58;12.05;;;7.20;;
42098;SDS011;27758;55.900;8.516;2023-01-24T00:39:24;13.55;;;7.60;;
42098;SDS011;27758;55.900;8.516;2023-01-24T00:41:52;13.95;;;8.32;;
42098;SDS011;27758;55.900;8.516;2023-01-24T00:44:18;12.02;;;7.43;;
42098;SDS011;27758;55.900;8.516;2023-01-24T00:46:43;11.30;;;7.35;;
42098;SDS011;27758;55.900;8.516;2023-01-24T00:49:09;12.88;;;7.50;;
42098;SDS011;27758;55.900;8.516;2023-01-24T00:51:35;15.57;;;8.68;;
42098;SDS011;27758;55.900;8.516;2023-01-24T00:54:01;12.90;;;7.85;;
42098;SDS011;27758;55.900;8.516;2023-01-24T00:56:26;12.02;;;7.53;;
42098;SDS011;27758;55.900;8.516;2023-01-24T00:58:52;11.15;;;7.38;;
42098;SDS011;27758;55.900;8.516;2023-01-24T01:01:19;12.05;;;7.35;;
42098;SDS011;27758;55.900;8.516;2023-01-24T01:03:45;12.77;;;7.88;;
42098;SDS011;27758;55.900;8.516;2023-01-24T01:06:12;14.27;;;7.75;;
42098;SDS011;27758;55.900;8.516;2023-01-24T01:08:39;13.25;;;8.38;;
42098;SDS011;27758;55.900;8.516;2023-01-24T01:11:05;12.30;;;7.30;;
42098;SDS011;27758;55.900;8.516;2023-01-24T01:13:31;10.65;;;6.57;;
42098;SDS011;27758;55.900;8.516;2023-01-24T01:16:01;11.93;;;7.35;;
42098;SDS011;27758;55.900;8.516;2023-01-24T01:18:28;15.05;;;9.23;;
42098;SDS011;27758;55.900;8.516;2023-01-24T01:20:53;12.73;;;7.85;;
42098;SDS011;27758;55.900;8.516;2023-01-24T01:23:19;11.38;;;7.43;;
42098;SDS011;27758;55.900;8.516;2023-01-24T01:25:45;14.38;;;9.02;;
42098;SDS011;27758;55.900;8.516;2023-01-24T01:28:10;14.93;;;9.18;;
42098;SDS011;27758;55.900;8.516;2023-01-24T01:30:36;14.45;;;8.60;;
42098;SDS011;27758;55.900;8.516;2023-01-24T01:33:02;15.35;;;8.32;;
42098;SDS011;27758;55.900;8.516;2023-01-24T01:35:28;15.82;;;8.40;;
42098;SDS011;27758;55.900;8.516;2023-01-24T01:37:53;12.63;;;8.75;;
42098;SDS011;27758;55.900;8.516;2023-01-24T01:40:19;16.38;;;9.63;;
42098;SDS011;27758;55.900;8.516;2023-01-24T01:48:11;13.45;;;9.40;;
42098;SDS011;27758;55.900;8.516;2023-01-24T01:51:01;17.35;;;9.75;;
42098;SDS011;27758;55.900;8.516;2023-01-24T01:53:41;14.88;;;9.73;;
42098;SDS011;27758;55.900;8.516;2023-01-24T01:56:30;14.10;;;8.98;;
42098;SDS011;27758;55.900;8.516;2023-01-24T01:59:02;15.80;;;9.55;;
42098;SDS011;27758;55.900;8.516;2023-01-24T02:01:31;16.08;;;9.57;;
42098;SDS011;27758;55.900;8.516;2023-01-24T02:04:33;17.80;;;10.45;;
42098;SDS011;27758;55.900;8.516;2023-01-24T02:09:39;15.23;;;8.75;;
42098;SDS011;27758;55.900;8.516;2023-01-24T02:12:08;21.53;;;10.77;;
42098;SDS011;27758;55.900;8.516;2023-01-24T02:14:37;14.90;;;9.40;;
42098;SDS011;27758;55.900;8.516;2023-01-24T02:17:22;17.85;;;9.38;;
42098;SDS011;27758;55.900;8.516;2023-01-24T02:19:56;17.63;;;10.30;;
42098;SDS011;27758;55.900;8.516;2023-01-24T02:25:20;18.63;;;11.07;;
42098;SDS011;27758;55.900;8.516;2023-01-24T02:27:54;16.13;;;9.85;;
42098;SDS011;27758;55.900;8.516;2023-01-24T02:30:20;17.33;;;9.63;;
42098;SDS011;27758;55.900;8.516;2023-01-24T02:32:46;17.60;;;11.25;;
42098;SDS011;27758;55.900;8.516;2023-01-24T02:37:52;16.70;;;9.27;;
42098;SDS011;27758;55.900;8.516;2023-01-24T02:40:20;18.90;;;10.50;;
42098;SDS011;27758;55.900;8.516;2023-01-24T02:42:46;18.33;;;10.82;;
42098;SDS011;27758;55.900;8.516;2023-01-24T02:45:26;15.82;;;9.52;;
42098;SDS011;27758;55.900;8.516;2023-01-24T02:47:55;18.08;;;10.70;;
42098;SDS011;27758;55.900;8.516;2023-01-24T02:50:22;19.60;;;10.60;;
42098;SDS011;27758;55.900;8.516;2023-01-24T02:52:50;17.48;;;9.70;;
42098;SDS011;27758;55.900;8.516;2023-01-24T02:55:35;17.27;;;10.88;;
42098;SDS011;27758;55.900;8.516;2023-01-24T02:58:25;17.00;;;10.15;;
42098;SDS011;27758;55.900;8.516;2023-01-24T03:00:51;19.27;;;12.05;;
42098;SDS011;27758;55.900;8.516;2023-01-24T03:03:17;17.83;;;11.10;;
42098;SDS011;27758;55.900;8.516;2023-01-24T03:05:43;19.80;;;11.48;;
42098;SDS011;27758;55.900;8.516;2023-01-24T03:08:22;19.10;;;10.88;;
42098;SDS011;27758;55.900;8.516;2023-01-24T03:10:49;17.35;;;10.50;;
42098;SDS011;27758;55.900;8.516;2023-01-24T03:13:15;19.00;;;11.10;;
42098;SDS011;27758;55.900;8.516;2023-01-24T03:16:00;18.58;;;11.43;;
42098;SDS011;27758;55.900;8.516;2023-01-24T03:18:45;20.13;;;10.63;;
42098;SDS011;27758;55.900;8.516;2023-01-24T03:21:30;18.48;;;11.00;;
42098;SDS011;27758;55.900;8.516;2023-01-24T03:24:14;19.77;;;11.80;;
42098;SDS011;27758;55.900;8.516;2023-01-24T03:26:58;19.17;;;11.27;;
42098;SDS011;27758;55.900;8.516;2023-01-24T03:29:43;18.50;;;11.63;;
42098;SDS011;27758;55.900;8.516;2023-01-24T03:32:27;16.77;;;10.52;;
42098;SDS011;27758;55.900;8.516;2023-01-24T03:35:11;20.83;;;10.93;;
42098;SDS011;27758;55.900;8.516;2023-01-24T03:37:37;17.70;;;10.65;;
42098;SDS011;27758;55.900;8.516;2023-01-24T03:40:21;17.17;;;10.35;;
42098;SDS011;27758;55.900;8.516;2023-01-24T03:42:47;19.73;;;10.85;;
42098;SDS011;27758;55.900;8.516;2023-01-24T03:45:15;17.13;;;10.40;;
42098;SDS011;27758;55.900;8.516;2023-01-24T03:48:04;18.00;;;11.10;;
42098;SDS011;27758;55.900;8.516;2023-01-24T03:50:38;18.40;;;10.88;;
42098;SDS011;27758;55.900;8.516;2023-01-24T03:53:24;17.30;;;10.55;;
42098;SDS011;27758;55.900;8.516;2023-01-24T03:55:57;16.88;;;10.85;;
42098;SDS011;27758;55.900;8.516;2023-01-24T03:58:25;19.77;;;11.20;;
42098;SDS011;27758;55.900;8.516;2023-01-24T04:00:52;18.40;;;11.23;;
42098;SDS011;27758;55.900;8.516;2023-01-24T04:03:19;19.40;;;9.85;;
42098;SDS011;27758;55.900;8.516;2023-01-24T04:05:48;19.10;;;11.45;;
42098;SDS011;27758;55.900;8.516;2023-01-24T04:08:14;16.10;;;10.63;;
42098;SDS011;27758;55.900;8.516;2023-01-24T04:10:41;16.10;;;9.98;;
42098;SDS011;27758;55.900;8.516;2023-01-24T04:13:08;17.20;;;10.30;;
42098;SDS011;27758;55.900;8.516;2023-01-24T04:15:37;15.57;;;9.63;;
42098;SDS011;27758;55.900;8.516;2023-01-24T04:18:03;17.85;;;11.10;;
42098;SDS011;27758;55.900;8.516;2023-01-24T04:20:31;17.63;;;10.48;;
42098;SDS011;27758;55.900;8.516;2023-01-24T04:23:01;16.08;;;10.90;;
42098;SDS011;27758;55.900;8.516;2023-01-24T04:27:54;20.48;;;11.27;;
42098;SDS011;27758;55.900;8.516;2023-01-24T04:30:20;17.42;;;11.13;;
42098;SDS011;27758;55.900;8.516;2023-01-24T04:32:46;18.63;;;10.93;;
42098;SDS011;27758;55.900;8.516;2023-01-24T04:35:16;15.77;;;10.15;;
42098;SDS011;27758;55.900;8.516;2023-01-24T04:37:46;15.65;;;9.93;;
42098;SDS011;27758;55.900;8.516;2023-01-24T04:40:12;17.73;;;10.13;;
42098;SDS011;27758;55.900;8.516;2023-01-24T04:42:40;15.82;;;9.98;;
42098;SDS011;27758;55.900;8.516;2023-01-24T04:45:06;16.13;;;10.57;;
42098;SDS011;27758;55.900;8.516;2023-01-24T04:47:33;15.38;;;10.13;;
42098;SDS011;27758;55.900;8.516;2023-01-24T04:49:59;16.50;;;10.48;;
42098;SDS011;27758;55.900;8.516;2023-01-24T04:52:24;16.88;;;10.65;;
42098;SDS011;27758;55.900;8.516;2023-01-24T04:54:50;15.27;;;9.80;;
42098;SDS011;27758;55.900;8.516;2023-01-24T04:57:16;14.32;;;10.13;;
42098;SDS011;27758;55.900;8.516;2023-01-24T04:59:43;13.98;;;10.18;;
42098;SDS011;27758;55.900;8.516;2023-01-24T05:02:08;18.77;;;11.43;;
42098;SDS011;27758;55.900;8.516;2023-01-24T05:04:34;16.02;;;11.02;;
42098;SDS011;27758;55.900;8.516;2023-01-24T05:07:00;15.57;;;10.50;;
42098;SDS011;27758;55.900;8.516;2023-01-24T05:09:26;15.15;;;10.48;;
42098;SDS011;27758;55.900;8.516;2023-01-24T05:11:52;19.20;;;10.27;;
42098;SDS011;27758;55.900;8.516;2023-01-24T05:14:17;16.65;;;10.32;;
42098;SDS011;27758;55.900;8.516;2023-01-24T05:16:43;16.38;;;10.05;;
42098;SDS011;27758;55.900;8.516;2023-01-24T05:19:09;13.10;;;9.95;;
42098;SDS011;27758;55.900;8.516;2023-01-24T05:21:34;17.80;;;10.93;;
42098;SDS011;27758;55.900;8.516;2023-01-24T05:24:00;14.60;;;9.77;;
42098;SDS011;27758;55.900;8.516;2023-01-24T05:26:26;15.45;;;10.85;;
42098;SDS011;27758;55.900;8.516;2023-01-24T05:28:52;15.93;;;10.55;;
42098;SDS011;27758;55.900;8.516;2023-01-24T05:31:18;16.00;;;11.02;;
42098;SDS011;27758;55.900;8.516;2023-01-24T05:33:45;15.85;;;10.65;;
42098;SDS011;27758;55.900;8.516;2023-01-24T05:36:15;17.20;;;11.18;;
42098;SDS011;27758;55.900;8.516;2023-01-24T05:38:43;15.65;;;11.63;;
42098;SDS011;27758;55.900;8.516;2023-01-24T05:41:10;16.48;;;11.50;;
42098;SDS011;27758;55.900;8.516;2023-01-24T05:43:38;15.48;;;10.73;;
42098;SDS011;27758;55.900;8.516;2023-01-24T05:46:05;17.00;;;11.20;;
42098;SDS011;27758;55.900;8.516;2023-01-24T05:48:34;16.02;;;11.48;;
42098;SDS011;27758;55.900;8.516;2023-01-24T05:51:04;17.85;;;10.90;;
42098;SDS011;27758;55.900;8.516;2023-01-24T05:53:34;15.55;;;10.20;;
42098;SDS011;27758;55.900;8.516;2023-01-24T05:56:03;16.30;;;10.77;;
42098;SDS011;27758;55.900;8.516;2023-01-24T05:58:32;16.83;;;11.50;;
42098;SDS011;27758;55.900;8.516;2023-01-24T06:00:59;15.98;;;10.75;;
42098;SDS011;27758;55.900;8.516;2023-01-24T06:03:25;16.45;;;11.70;;
42098;SDS011;27758;55.900;8.516;2023-01-24T06:05:51;17.13;;;11.05;;
42098;SDS011;27758;55.900;8.516;2023-01-24T06:08:19;17.75;;;11.13;;
42098;SDS011;27758;55.900;8.516;2023-01-24T06:10:45;15.15;;;10.43;;
42098;SDS011;27758;55.900;8.516;2023-01-24T06:13:12;17.33;;;10.68;;
42098;SDS011;27758;55.900;8.516;2023-01-24T06:15:38;16.65;;;10.80;;
42098;SDS011;27758;55.900;8.516;2023-01-24T06:18:05;15.50;;;10.65;;
42098;SDS011;27758;55.900;8.516;2023-01-24T06:20:32;15.65;;;10.02;;
42098;SDS011;27758;55.900;8.516;2023-01-24T06:23:17;14.45;;;9.57;;
42098;SDS011;27758;55.900;8.516;2023-01-24T06:25:51;15.23;;;10.55;;
42098;SDS011;27758;55.900;8.516;2023-01-24T06:28:18;15.68;;;10.07;;
42098;SDS011;27758;55.900;8.516;2023-01-24T06:30:49;17.67;;;10.45;;
42098;SDS011;27758;55.900;8.516;2023-01-24T06:33:25;15.13;;;9.70;;
42098;SDS011;27758;55.900;8.516;2023-01-24T06:41:15;14.73;;;9.77;;
42098;SDS011;27758;55.900;8.516;2023-01-24T06:43:45;15.93;;;9.88;;
42098;SDS011;27758;55.900;8.516;2023-01-24T06:46:11;15.77;;;9.18;;
42098;SDS011;27758;55.900;8.516;2023-01-24T06:48:38;15.13;;;9.63;;
42098;SDS011;27758;55.900;8.516;2023-01-24T06:51:04;14.18;;;9.77;;
42098;SDS011;27758;55.900;8.516;2023-01-24T06:53:32;19.02;;;10.13;;
42098;SDS011;27758;55.900;8.516;2023-01-24T06:55:58;16.10;;;10.07;;
42098;SDS011;27758;55.900;8.516;2023-01-24T06:58:24;16.80;;;9.57;;
42098;SDS011;27758;55.900;8.516;2023-01-24T07:00:51;15.90;;;9.55;;
42098;SDS011;27758;55.900;8.516;2023-01-24T07:03:18;14.02;;;8.93;;
42098;SDS011;27758;55.900;8.516;2023-01-24T07:05:43;15.02;;;10.00;;
42098;SDS011;27758;55.900;8.516;2023-01-24T07:08:11;16.92;;;10.10;;
42098;SDS011;27758;55.900;8.516;2023-01-24T07:10:38;16.35;;;8.50;;
42098;SDS011;27758;55.900;8.516;2023-01-24T07:13:04;17.95;;;9.90;;
42098;SDS011;27758;55.900;8.516;2023-01-24T07:15:30;15.13;;;8.75;;
42098;SDS011;27758;55.900;8.516;2023-01-24T07:17:56;15.27;;;9.32;;
42098;SDS011;27758;55.900;8.516;2023-01-24T07:20:29;16.02;;;9.27;;
42098;SDS011;27758;55.900;8.516;2023-01-24T07:22:54;14.73;;;8.55;;
42098;SDS011;27758;55.900;8.516;2023-01-24T07:25:21;15.38;;;9.98;;
42098;SDS011;27758;55.900;8.516;2023-01-24T07:27:47;15.50;;;9.23;;
42098;SDS011;27758;55.900;8.516;2023-01-24T07:30:14;19.00;;;9.85;;
42098;SDS011;27758;55.900;8.516;2023-01-24T07:32:40;17.83;;;10.15;;
42098;SDS011;27758;55.900;8.516;2023-01-24T07:35:05;16.23;;;8.90;;
42098;SDS011;27758;55.900;8.516;2023-01-24T07:37:31;17.17;;;9.90;;
42098;SDS011;27758;55.900;8.516;2023-01-24T07:39:57;13.75;;;9.43;;
42098;SDS011;27758;55.900;8.516;2023-01-24T07:42:23;15.15;;;9.93;;
42098;SDS011;27758;55.900;8.516;2023-01-24T07:44:49;17.13;;;9.98;;
42098;SDS011;27758;55.900;8.516;2023-01-24T07:47:15;17.52;;;9.73;;
42098;SDS011;27758;55.900;8.516;2023-01-24T07:49:41;16.95;;;9.18;;
42098;SDS011;27758;55.900;8.516;2023-01-24T07:52:07;17.42;;;9.80;;
42098;SDS011;27758;55.900;8.516;2023-01-24T07:54:32;15.43;;;9.50;;
42098;SDS011;27758;55.900;8.516;2023-01-24T07:56:59;17.60;;;10.05;;
42098;SDS011;27758;55.900;8.516;2023-01-24T07:59:25;17.48;;;9.30;;
42098;SDS011;27758;55.900;8.516;2023-01-24T08:01:51;14.55;;;9.85;;
42098;SDS011;27758;55.900;8.516;2023-01-24T08:04:17;16.10;;;9.95;;
42098;SDS011;27758;55.900;8.516;2023-01-24T08:06:42;16.35;;;10.55;;
42098;SDS011;27758;55.900;8.516;2023-01-24T08:09:28;18.17;;;10.10;;
42098;SDS011;27758;55.900;8.516;2023-01-24T08:11:55;17.33;;;9.65;;
42098;SDS011;27758;55.900;8.516;2023-01-24T08:14:21;15.30;;;9.45;;
42098;SDS011;27758;55.900;8.516;2023-01-24T08:16:49;15.68;;;10.23;;
42098;SDS011;27758;55.900;8.516;2023-01-24T08:19:15;15.05;;;10.25;;
42098;SDS011;27758;55.900;8.516;2023-01-24T08:21:41;13.60;;;9.25;;
42098;SDS011;27758;55.900;8.516;2023-01-24T08:24:07;15.45;;;9.60;;
42098;SDS011;27758;55.900;8.516;2023-01-24T08:26:33;15.38;;;10.30;;
42098;SDS011;27758;55.900;8.516;2023-01-24T08:28:58;16.23;;;10.13;;
42098;SDS011;27758;55.900;8.516;2023-01-24T08:31:24;15.52;;;9.98;;
42098;SDS011;27758;55.900;8.516;2023-01-24T08:33:50;17.60;;;10.90;;
42098;SDS011;27758;55.900;8.516;2023-01-24T08:36:17;17.73;;;10.77;;
42098;SDS011;27758;55.900;8.516;2023-01-24T08:38:44;15.43;;;10.05;;
42098;SDS011;27758;55.900;8.516;2023-01-24T08:41:10;13.60;;;9.73;;
42098;SDS011;27758;55.900;8.516;2023-01-24T08:43:36;13.85;;;9.43;;
42098;SDS011;27758;55.900;8.516;2023-01-24T08:46:02;16.10;;;9.75;;
42098;SDS011;27758;55.900;8.516;2023-01-24T08:48:28;14.05;;;9.75;;
42098;SDS011;27758;55.900;8.516;2023-01-24T08:50:55;13.40;;;8.95;;
42098;SDS011;27758;55.900;8.516;2023-01-24T08:53:20;12.75;;;8.60;;
42098;SDS011;27758;55.900;8.516;2023-01-24T08:55:49;13.48;;;9.27;;
42098;SDS011;27758;55.900;8.516;2023-01-24T08:58:15;14.60;;;9.20;;
42098;SDS011;27758;55.900;8.516;2023-01-24T09:00:41;13.10;;;8.68;;
42098;SDS011;27758;55.900;8.516;2023-01-24T09:03:08;14.68;;;9.35;;
42098;SDS011;27758;55.900;8.516;2023-01-24T09:05:36;13.05;;;9.27;;
42098;SDS011;27758;55.900;8.516;2023-01-24T09:08:03;12.10;;;8.00;;
42098;SDS011;27758;55.900;8.516;2023-01-24T09:10:29;9.70;;;6.90;;
42098;SDS011;27758;55.900;8.516;2023-01-24T09:12:55;9.80;;;6.88;;
42098;SDS011;27758;55.900;8.516;2023-01-24T09:15:21;10.40;;;7.35;;
42098;SDS011;27758;55.900;8.516;2023-01-24T09:17:47;15.40;;;7.03;;
42098;SDS011;27758;55.900;8.516;2023-01-24T09:20:12;8.70;;;6.30;;
42098;SDS011;27758;55.900;8.516;2023-01-24T09:22:38;8.82;;;6.13;;
42098;SDS011;27758;55.900;8.516;2023-01-24T09:25:04;10.65;;;6.30;;
42098;SDS011;27758;55.900;8.516;2023-01-24T09:27:32;11.13;;;6.68;;
42098;SDS011;27758;55.900;8.516;2023-01-24T09:29:59;8.43;;;6.50;;
42098;SDS011;27758;55.900;8.516;2023-01-24T09:32:24;9.18;;;5.85;;
42098;SDS011;27758;55.900;8.516;2023-01-24T09:34:50;9.43;;;5.82;;
42098;SDS011;27758;55.900;8.516;2023-01-24T09:37:17;8.30;;;6.03;;
42098;SDS011;27758;55.900;8.516;2023-01-24T09:47:26;8.75;;;5.13;;
42098;SDS011;27758;55.900;8.516;2023-01-24T09:50:03;10.32;;;6.55;;
42098;SDS011;27758;55.900;8.516;2023-01-24T09:52:34;7.90;;;5.78;;
42098;SDS011;27758;55.900;8.516;2023-01-24T09:55:19;8.10;;;5.85;;
42098;SDS011;27758;55.900;8.516;2023-01-24T10:00:25;9.93;;;6.07;;
42098;SDS011;27758;55.900;8.516;2023-01-24T10:02:52;8.30;;;5.63;;
42098;SDS011;27758;55.900;8.516;2023-01-24T10:05:20;8.55;;;5.80;;
42098;SDS011;27758;55.900;8.516;2023-01-24T10:07:56;8.63;;;5.97;;
42098;SDS011;27758;55.900;8.516;2023-01-24T10:10:43;9.40;;;6.60;;
42098;SDS011;27758;55.900;8.516;2023-01-24T10:25:07;9.07;;;5.15;;
42098;SDS011;27758;55.900;8.516;2023-01-24T10:27:38;8.95;;;6.22;;
42098;SDS011;27758;55.900;8.516;2023-01-24T10:30:14;9.30;;;5.95;;
42098;SDS011;27758;55.900;8.516;2023-01-24T10:32:42;9.35;;;5.25;;
42098;SDS011;27758;55.900;8.516;2023-01-24T10:35:13;8.75;;;5.88;;
42098;SDS011;27758;55.900;8.516;2023-01-24T10:37:42;11.35;;;5.78;;
42098;SDS011;27758;55.900;8.516;2023-01-24T10:40:13;7.15;;;5.15;;
42098;SDS011;27758;55.900;8.516;2023-01-24T10:42:40;8.75;;;5.35;;
42098;SDS011;27758;55.900;8.516;2023-01-24T10:48:11;6.90;;;4.82;;
42098;SDS011;27758;55.900;8.516;2023-01-24T10:50:49;8.27;;;5.47;;
42098;SDS011;27758;55.900;8.516;2023-01-24T10:53:27;11.75;;;5.95;;
42098;SDS011;27758;55.900;8.516;2023-01-24T10:55:59;6.25;;;4.65;;
42098;SDS011;27758;55.900;8.516;2023-01-24T10:58:28;8.95;;;5.15;;
42098;SDS011;27758;55.900;8.516;2023-01-24T11:01:07;9.90;;;5.70;;
42098;SDS011;27758;55.900;8.516;2023-01-24T11:03:53;10.38;;;4.97;;
42098;SDS011;27758;55.900;8.516;2023-01-24T11:06:21;7.10;;;4.85;;
42098;SDS011;27758;55.900;8.516;2023-01-24T11:08:47;10.15;;;5.38;;
42098;SDS011;27758;55.900;8.516;2023-01-24T11:11:26;9.48;;;5.75;;
42098;SDS011;27758;55.900;8.516;2023-01-24T11:14:03;11.43;;;5.57;;
42098;SDS011;27758;55.900;8.516;2023-01-24T11:16:31;8.75;;;5.50;;
42098;SDS011;27758;55.900;8.516;2023-01-24T11:19:03;9.63;;;5.43;;
42098;SDS011;27758;55.900;8.516;2023-01-24T11:21:30;9.77;;;6.22;;
42098;SDS011;27758;55.900;8.516;2023-01-24T11:26:33;7.82;;;5.65;;
42098;SDS011;27758;55.900;8.516;2023-01-24T11:29:06;10.93;;;5.68;;
42098;SDS011;27758;55.900;8.516;2023-01-24T11:42:59;10.07;;;6.75;;
42098;SDS011;27758;55.900;8.516;2023-01-24T11:48:20;10.02;;;6.20;;
42098;SDS011;27758;55.900;8.516;2023-01-24T11:59:09;8.07;;;5.65;;
42098;SDS011;27758;55.900;8.516;2023-01-24T12:10:16;8.82;;;5.88;;
42098;SDS011;27758;55.900;8.516;2023-01-24T12:12:55;8.98;;;5.72;;
42098;SDS011;27758;55.900;8.516;2023-01-24T12:15:50;9.40;;;5.60;;
42098;SDS011;27758;55.900;8.516;2023-01-24T12:21:31;10.43;;;5.95;;
42098;SDS011;27758;55.900;8.516;2023-01-24T12:26:55;6.95;;;5.30;;
42098;SDS011;27758;55.900;8.516;2023-01-24T12:32:00;11.45;;;6.18;;
42098;SDS011;27758;55.900;8.516;2023-01-24T12:48:04;10.07;;;5.90;;
42098;SDS011;27758;55.900;8.516;2023-01-24T12:50:56;10.07;;;6.47;;
42098;SDS011;27758;55.900;8.516;2023-01-24T12:58:36;9.18;;;5.68;;
42098;SDS011;27758;55.900;8.516;2023-01-24T13:11:59;9.65;;;5.82;;
42098;SDS011;27758;55.900;8.516;2023-01-24T13:14:30;10.10;;;6.03;;
42098;SDS011;27758;55.900;8.516;2023-01-24T13:29:15;10.25;;;6.47;;
42098;SDS011;27758;55.900;8.516;2023-01-24T13:34:43;10.23;;;6.15;;
42098;SDS011;27758;55.900;8.516;2023-01-24T13:37:16;10.00;;;6.28;;
42098;SDS011;27758;55.900;8.516;2023-01-24T13:39:45;10.32;;;5.85;;
42098;SDS011;27758;55.900;8.516;2023-01-24T13:44:49;10.65;;;6.30;;
42098;SDS011;27758;55.900;8.516;2023-01-24T13:54:56;10.98;;;7.40;;
42098;SDS011;27758;55.900;8.516;2023-01-24T13:57:23;14.25;;;8.73;;
42098;SDS011;27758;55.900;8.516;2023-01-24T14:02:28;10.05;;;7.40;;
42098;SDS011;27758;55.900;8.516;2023-01-24T14:04:59;11.02;;;8.18;;
42098;SDS011;27758;55.900;8.516;2023-01-24T14:07:29;11.32;;;7.93;;
42098;SDS011;27758;55.900;8.516;2023-01-24T14:10:02;12.50;;;7.55;;
42098;SDS011;27758;55.900;8.516;2023-01-24T14:12:30;9.85;;;6.97;;
42098;SDS011;27758;55.900;8.516;2023-01-24T14:20:14;14.07;;;9.10;;
42098;SDS011;27758;55.900;8.516;2023-01-24T14:22:45;12.35;;;8.13;;
42098;SDS011;27758;55.900;8.516;2023-01-24T14:27:57;17.23;;;8.70;;
42098;SDS011;27758;55.900;8.516;2023-01-24T14:32:52;11.35;;;7.50;;
42098;SDS011;27758;55.900;8.516;2023-01-24T14:35:27;11.57;;;8.45;;
42098;SDS011;27758;55.900;8.516;2023-01-24T14:38:10;11.13;;;7.93;;
42098;SDS011;27758;55.900;8.516;2023-01-24T14:40:40;13.25;;;8.10;;
42098;SDS011;27758;55.900;8.516;2023-01-24T14:43:06;14.63;;;8.18;;
42098;SDS011;27758;55.900;8.516;2023-01-24T14:45:35;15.45;;;8.20;;
42098;SDS011;27758;55.900;8.516;2023-01-24T14:48:01;12.48;;;8.02;;
42098;SDS011;27758;55.900;8.516;2023-01-24T14:50:33;12.10;;;8.70;;
42098;SDS011;27758;55.900;8.516;2023-01-24T14:53:01;13.07;;;7.65;;
42098;SDS011;27758;55.900;8.516;2023-01-24T14:55:46;15.88;;;9.27;;
42098;SDS011;27758;55.900;8.516;2023-01-24T14:58:20;13.68;;;8.35;;
42098;SDS011;27758;55.900;8.516;2023-01-24T15:00:51;12.75;;;8.15;;
42098;SDS011;27758;55.900;8.516;2023-01-24T15:03:20;13.25;;;8.32;;
42098;SDS011;27758;55.900;8.516;2023-01-24T15:06:01;12.18;;;8.55;;
42098;SDS011;27758;55.900;8.516;2023-01-24T15:08:29;12.90;;;8.65;;
42098;SDS011;27758;55.900;8.516;2023-01-24T15:11:00;12.75;;;8.30;;
42098;SDS011;27758;55.900;8.516;2023-01-24T15:13:34;13.93;;;8.65;;
42098;SDS011;27758;55.900;8.516;2023-01-24T15:16:06;14.25;;;8.52;;
42098;SDS011;27758;55.900;8.516;2023-01-24T15:18:35;14.50;;;8.95;;
42098;SDS011;27758;55.900;8.516;2023-01-24T15:21:15;14.45;;;9.38;;
42098;SDS011;27758;55.900;8.516;2023-01-24T15:23:54;15.07;;;8.93;;
42098;SDS011;27758;55.900;8.516;2023-01-24T15:26:32;16.02;;;8.80;;
42098;SDS011;27758;55.900;8.516;2023-01-24T15:31:57;12.60;;;8.30;;
42098;SDS011;27758;55.900;8.516;2023-01-24T15:34:23;13.52;;;8.63;;
42098;SDS011;27758;55.900;8.516;2023-01-24T15:36:57;13.15;;;9.20;;
42098;SDS011;27758;55.900;8.516;2023-01-24T15:39:26;13.13;;;8.63;;
42098;SDS011;27758;55.900;8.516;2023-01-24T15:41:52;11.75;;;8.10;;
42098;SDS011;27758;55.900;8.516;2023-01-24T15:44:46;13.95;;;8.50;;
42098;SDS011;27758;55.900;8.516;2023-01-24T15:47:20;13.07;;;8.60;;
42098;SDS011;27758;55.900;8.516;2023-01-24T15:50:15;11.75;;;7.85;;
42098;SDS011;27758;55.900;8.516;2023-01-24T15:55:46;12.30;;;8.60;;
42098;SDS011;27758;55.900;8.516;2023-01-24T15:58:12;10.32;;;7.47;;
42098;SDS011;27758;55.900;8.516;2023-01-24T16:00:38;11.05;;;7.32;;
42098;SDS011;27758;55.900;8.516;2023-01-24T16:03:04;15.15;;;10.48;;
42098;SDS011;27758;55.900;8.516;2023-01-24T16:05:30;36.25;;;20.50;;
42098;SDS011;27758;55.900;8.516;2023-01-24T16:07:55;18.52;;;10.80;;
42098;SDS011;27758;55.900;8.516;2023-01-24T16:10:21;17.50;;;10.32;;
42098;SDS011;27758;55.900;8.516;2023-01-24T16:12:47;11.57;;;7.40;;
42098;SDS011;27758;55.900;8.516;2023-01-24T16:15:16;13.73;;;8.23;;
42098;SDS011;27758;55.900;8.516;2023-01-24T16:17:43;12.50;;;9.10;;
42098;SDS011;27758;55.900;8.516;2023-01-24T16:20:19;12.02;;;7.95;;
42098;SDS011;27758;55.900;8.516;2023-01-24T16:22:49;15.13;;;8.07;;
42098;SDS011;27758;55.900;8.516;2023-01-24T16:25:15;13.32;;;8.50;;
42098;SDS011;27758;55.900;8.516;2023-01-24T16:27:42;11.32;;;7.63;;
42098;SDS011;27758;55.900;8.516;2023-01-24T16:30:13;14.63;;;7.65;;
42098;SDS011;27758;55.900;8.516;2023-01-24T16:32:43;13.25;;;7.18;;
42098;SDS011;27758;55.900;8.516;2023-01-24T16:35:09;14.20;;;8.25;;
42098;SDS011;27758;55.900;8.516;2023-01-24T16:37:35;12.35;;;9.00;;
42098;SDS011;27758;55.900;8.516;2023-01-24T16:40:00;18.35;;;8.98;;
42098;SDS011;27758;55.900;8.516;2023-01-24T16:42:26;14.30;;;7.85;;
42098;SDS011;27758;55.900;8.516;2023-01-24T16:44:53;16.85;;;8.85;;
42098;SDS011;27758;55.900;8.516;2023-01-24T16:47:21;13.75;;;8.55;;
42098;SDS011;27758;55.900;8.516;2023-01-24T16:49:50;12.88;;;7.80;;
42098;SDS011;27758;55.900;8.516;2023-01-24T16:52:17;11.35;;;7.57;;
42098;SDS011;27758;55.900;8.516;2023-01-24T16:54:42;12.20;;;7.97;;
42098;SDS011;27758;55.900;8.516;2023-01-24T16:57:08;14.88;;;9.00;;
42098;SDS011;27758;55.900;8.516;2023-01-24T16:59:34;14.13;;;7.75;;
42098;SDS011;27758;55.900;8.516;2023-01-24T17:01:59;14.70;;;8.75;;
42098;SDS011;27758;55.900;8.516;2023-01-24T17:04:25;13.55;;;8.15;;
42098;SDS011;27758;55.900;8.516;2023-01-24T17:06:51;14.20;;;8.68;;
42098;SDS011;27758;55.900;8.516;2023-01-24T17:09:17;12.18;;;7.93;;
42098;SDS011;27758;55.900;8.516;2023-01-24T17:11:42;11.52;;;7.88;;
42098;SDS011;27758;55.900;8.516;2023-01-24T17:14:08;13.93;;;9.07;;
42098;SDS011;27758;55.900;8.516;2023-01-24T17:16:34;17.75;;;8.85;;
42098;SDS011;27758;55.900;8.516;2023-01-24T17:19:00;13.88;;;8.05;;
42098;SDS011;27758;55.900;8.516;2023-01-24T17:21:26;11.18;;;7.53;;
42098;SDS011;27758;55.900;8.516;2023-01-24T17:23:52;14.63;;;9.13;;
42098;SDS011;27758;55.900;8.516;2023-01-24T17:26:19;14.07;;;7.88;;
42098;SDS011;27758;55.900;8.516;2023-01-24T17:28:45;12.20;;;7.47;;